Time;durP1;ratioP1;P1;durP2;ratioP2;P2;SDS_P1;SDS_P2;PMS_P1;PMS_P2;Temp;Humidity;BMP_temperature;BMP_pressure;BME280_temperature;BME280_humidity;BME280_pressure;Samples;Min_cycle;Max_cycle;Signal;HPM_P1;HPM_P2
2022/11/26 00:00:17;;;;;;;25.00;4.07;;;9.80;99.90;;;;;;5055127;28;20194;-78
2022/11/26 00:02:44;;;;;;;20.10;3.90;;;9.80;99.90;;;;;;5054917;28;20514;-79
2022/11/26 00:05:13;;;;;;;16.10;3.43;;;9.90;99.90;;;;;;5054470;28;20239;-78
2022/11/26 00:07:40;;;;;;;18.20;4.13;;;9.90;99.90;;;;;;5054929;28;20292;-78
2022/11/26 00:10:16;;;;;;;22.57;4.63;;;9.90;99.90;;;;;;5054485;28;20209;-80
2022/11/26 00:12:43;;;;;;;16.50;4.30;;;9.90;99.90;;;;;;5053971;28;20590;-82
2022/11/26 00:15:16;;;;;;;17.53;3.53;;;9.90;99.90;;;;;;5055152;28;20222;-78
2022/11/26 00:17:43;;;;;;;16.43;4.00;;;10.00;99.90;;;;;;5055251;28;20202;-79
2022/11/26 00:20:10;;;;;;;19.60;3.67;;;9.90;99.90;;;;;;5054355;28;20529;-79
2022/11/26 00:22:41;;;;;;;15.30;3.30;;;9.90;99.90;;;;;;5054153;28;20217;-78
2022/11/26 00:25:15;;;;;;;25.07;4.20;;;9.90;99.90;;;;;;5054205;28;20205;-78
2022/11/26 00:27:42;;;;;;;21.50;4.50;;;9.90;99.90;;;;;;5053433;28;20241;-78
2022/11/26 00:30:18;;;;;;;13.73;3.57;;;9.90;99.90;;;;;;5054878;28;20197;-79
2022/11/26 00:32:45;;;;;;;15.33;3.57;;;9.90;99.90;;;;;;5054841;28;20193;-77
2022/11/26 00:35:12;;;;;;;22.63;3.77;;;9.90;99.90;;;;;;5053456;28;20729;-78
2022/11/26 00:37:42;;;;;;;17.40;3.87;;;9.90;99.90;;;;;;5054420;28;20206;-78
2022/11/26 00:40:19;;;;;;;14.17;3.63;;;9.80;99.90;;;;;;5053643;28;20291;-78
2022/11/26 00:42:46;;;;;;;18.57;3.83;;;9.80;99.90;;;;;;5054177;28;20213;-79
2022/11/26 00:45:19;;;;;;;14.77;3.93;;;9.80;99.90;;;;;;5053706;28;20576;-78
2022/11/26 00:47:46;;;;;;;13.43;3.97;;;9.70;99.90;;;;;;5053183;28;20209;-79
2022/11/26 00:50:15;;;;;;;16.77;4.33;;;9.70;99.90;;;;;;5053810;28;20301;-77
2022/11/26 00:52:43;;;;;;;13.90;3.93;;;9.60;99.90;;;;;;5054054;28;20198;-78
2022/11/26 00:55:17;;;;;;;13.73;3.70;;;9.60;99.90;;;;;;5053422;28;20225;-77
2022/11/26 00:57:44;;;;;;;17.60;4.10;;;9.50;99.90;;;;;;5054126;28;20192;-78
2022/11/26 01:00:18;;;;;;;15.97;4.70;;;9.40;99.90;;;;;;5053861;28;20537;-78
2022/11/26 01:02:46;;;;;;;14.07;4.27;;;9.40;99.90;;;;;;5065572;28;20695;-78
2022/11/26 01:05:13;;;;;;;17.03;3.87;;;9.30;99.90;;;;;;5073894;28;20221;-78
2022/11/26 01:07:41;;;;;;;14.83;3.80;;;9.20;99.90;;;;;;5066019;28;20204;-78
2022/11/26 01:10:16;;;;;;;17.10;4.67;;;9.20;99.90;;;;;;5052991;28;20590;-79
2022/11/26 01:12:43;;;;;;;12.20;3.13;;;9.10;99.90;;;;;;5053333;28;20589;-77
2022/11/26 01:15:10;;;;;;;16.33;4.10;;;9.10;99.90;;;;;;5052830;28;20804;-78
2022/11/26 01:17:39;;;;;;;14.20;4.00;;;9.00;99.90;;;;;;5053351;28;20206;-78
2022/11/26 01:20:25;;;;;;;13.40;3.67;;;9.00;99.90;;;;;;5053774;28;20202;-82
2022/11/26 01:22:54;;;;;;;13.53;3.23;;;8.90;99.90;;;;;;5052664;28;20213;-78
2022/11/26 01:25:22;;;;;;;12.03;3.63;;;8.80;99.90;;;;;;5053483;28;20194;-79
2022/11/26 01:27:49;;;;;;;12.93;3.70;;;8.80;99.90;;;;;;5053251;28;20538;-79
2022/11/26 01:30:20;;;;;;;8.03;2.77;;;8.70;99.90;;;;;;5052834;28;20558;-79
2022/11/26 01:32:49;;;;;;;8.07;2.70;;;8.70;99.90;;;;;;5053111;28;20281;-79
2022/11/26 01:35:17;;;;;;;9.97;2.90;;;8.60;99.90;;;;;;5052766;28;20311;-78
2022/11/26 01:37:44;;;;;;;10.27;2.73;;;8.50;99.90;;;;;;5052192;28;20671;-78
2022/11/26 01:40:43;;;;;;;14.97;3.57;;;8.50;99.90;;;;;;5053416;28;20619;-79
2022/11/26 01:43:14;;;;;;;12.67;3.10;;;8.40;99.90;;;;;;5052645;28;20194;-76
2022/11/26 01:45:41;;;;;;;9.33;3.10;;;8.40;99.90;;;;;;5053363;28;20309;-77
2022/11/26 01:48:28;;;;;;;9.57;3.10;;;8.30;99.90;;;;;;5053543;28;20204;-79
2022/11/26 01:50:59;;;;;;;11.63;3.40;;;8.20;99.90;;;;;;5065804;28;20216;-79
2022/11/26 01:53:40;;;;;;;18.17;4.03;;;8.20;99.90;;;;;;5065273;28;20293;-78
2022/11/26 01:56:17;;;;;;;14.17;3.77;;;8.20;99.90;;;;;;5052943;28;20218;-79
2022/11/26 01:58:47;;;;;;;19.33;5.60;;;8.20;99.90;;;;;;5052724;28;20598;-78
2022/11/26 02:01:14;;;;;;;19.47;4.33;;;8.20;99.90;;;;;;5052756;28;20570;-78
2022/11/26 02:03:48;;;;;;;30.47;5.90;;;8.30;99.90;;;;;;5052548;28;20236;-78
2022/11/26 02:06:20;;;;;;;17.77;3.87;;;8.40;99.90;;;;;;5052533;28;20232;-79
2022/11/26 02:08:47;;;;;;;23.13;5.03;;;8.40;99.90;;;;;;5052876;28;20536;-78
2022/11/26 02:11:17;;;;;;;19.67;4.33;;;8.50;99.90;;;;;;5071731;28;20217;-79
2022/11/26 02:13:45;;;;;;;15.93;4.20;;;8.50;99.90;;;;;;5070892;28;20229;-79
2022/11/26 02:16:19;;;;;;;15.30;3.57;;;8.60;99.90;;;;;;5072433;28;20891;-79
2022/11/26 02:18:59;;;;;;;19.20;4.40;;;8.60;99.90;;;;;;5061144;28;20289;-79
2022/11/26 02:21:28;;;;;;;12.13;3.73;;;8.60;99.90;;;;;;5052748;28;20294;-78
2022/11/26 02:24:22;;;;;;;15.03;3.50;;;8.60;99.90;;;;;;5052121;28;20213;-79
2022/11/26 02:27:09;;;;;;;11.03;3.13;;;8.50;99.90;;;;;;5051732;28;20206;-79
2022/11/26 02:30:08;;;;;;;15.60;4.50;;;8.50;99.90;;;;;;5052536;28;20225;-79
2022/11/26 02:32:49;;;;;;;10.03;2.97;;;8.40;99.90;;;;;;5049153;28;20233;-78
2022/11/26 02:35:22;;;;;;;11.50;3.50;;;8.40;99.90;;;;;;5052328;28;20214;-79
2022/11/26 02:37:54;;;;;;;17.80;3.87;;;8.40;99.90;;;;;;5051905;28;20206;-80
2022/11/26 02:40:22;;;;;;;19.40;4.23;;;8.40;99.90;;;;;;5051576;28;20208;-79
2022/11/26 02:42:49;;;;;;;21.90;5.20;;;8.40;99.90;;;;;;5052525;28;20194;-79
2022/11/26 02:45:20;;;;;;;21.60;5.07;;;8.40;99.90;;;;;;5052873;28;20308;-79
2022/11/26 02:47:51;;;;;;;21.80;4.47;;;8.50;99.90;;;;;;5051250;28;20198;-80
2022/11/26 02:50:22;;;;;;;27.20;5.17;;;8.50;99.90;;;;;;5052309;28;20202;-79
2022/11/26 02:52:52;;;;;;;23.37;4.17;;;8.60;99.90;;;;;;5052531;28;20196;-77
2022/11/26 02:55:22;;;;;;;21.17;4.13;;;8.60;99.90;;;;;;5051239;28;20517;-79
2022/11/26 02:57:51;;;;;;;18.47;4.47;;;8.60;99.90;;;;;;5062128;28;20201;-79
2022/11/26 03:00:19;;;;;;;19.53;4.43;;;8.60;99.90;;;;;;5072178;28;20197;-79
2022/11/26 03:02:51;;;;;;;17.30;4.07;;;8.60;99.90;;;;;;5071762;28;20223;-78
2022/11/26 03:05:19;;;;;;;18.57;5.47;;;8.60;99.90;;;;;;5063077;28;20204;-79
2022/11/26 03:07:49;;;;;;;18.57;4.80;;;8.60;99.90;;;;;;5052014;28;20228;-80
2022/11/26 03:10:19;;;;;;;22.57;4.57;;;8.60;99.90;;;;;;5052483;28;20216;-79
2022/11/26 03:12:45;;;;;;;24.10;5.33;;;8.60;99.90;;;;;;5052610;28;20240;-80
2022/11/26 03:15:13;;;;;;;23.70;5.20;;;8.60;99.90;;;;;;5051432;28;20213;-80
2022/11/26 03:17:40;;;;;;;26.47;5.50;;;8.60;99.90;;;;;;5051997;28;20212;-78
2022/11/26 03:20:09;;;;;;;22.77;7.33;;;8.50;99.90;;;;;;5066119;28;20201;-79
2022/11/26 03:22:36;;;;;;;26.10;5.43;;;8.50;99.90;;;;;;5071349;28;20194;-82
2022/11/26 03:25:03;;;;;;;21.70;4.90;;;8.50;99.90;;;;;;5071785;28;20595;-80
2022/11/26 03:27:30;;;;;;;21.23;5.30;;;8.40;99.90;;;;;;5071906;28;20229;-79
2022/11/26 03:29:57;;;;;;;18.63;5.43;;;8.40;99.90;;;;;;5064901;28;20486;-80
2022/11/26 03:32:24;;;;;;;14.07;4.27;;;8.30;99.90;;;;;;5071408;28;20516;-79
2022/11/26 03:34:51;;;;;;;19.67;4.50;;;8.30;99.90;;;;;;5065860;28;20727;-78
2022/11/26 03:37:19;;;;;;;13.17;4.50;;;8.30;99.90;;;;;;5051149;28;20225;-80
2022/11/26 03:39:46;;;;;;;24.90;4.53;;;8.30;99.90;;;;;;5052127;28;20213;-80
2022/11/26 03:42:13;;;;;;;21.97;5.57;;;8.20;99.90;;;;;;5051746;28;20204;-80
2022/11/26 03:44:40;;;;;;;15.23;4.07;;;8.20;99.90;;;;;;5051537;28;20233;-81
2022/11/26 03:47:07;;;;;;;17.33;4.20;;;8.20;99.90;;;;;;5051712;28;20229;-79
2022/11/26 03:49:34;;;;;;;15.00;4.43;;;8.20;99.90;;;;;;5052057;28;20198;-79
2022/11/26 03:52:01;;;;;;;15.83;4.60;;;8.20;99.90;;;;;;5051378;28;20213;-79
2022/11/26 03:54:29;;;;;;;14.73;4.10;;;8.20;99.90;;;;;;5051437;28;20229;-78
2022/11/26 03:56:56;;;;;;;24.67;4.57;;;8.10;99.90;;;;;;5051436;28;20229;-79
2022/11/26 03:59:23;;;;;;;21.17;5.13;;;8.10;99.90;;;;;;5051669;28;20552;-78
2022/11/26 04:01:50;;;;;;;18.87;5.17;;;8.10;99.90;;;;;;5056935;28;20210;-77
2022/11/26 04:04:17;;;;;;;15.67;4.57;;;8.10;99.90;;;;;;5054756;28;20289;-77
2022/11/26 04:06:43;;;;;;;16.47;4.40;;;8.10;99.90;;;;;;5055096;28;20232;-78
2022/11/26 04:09:10;;;;;;;18.00;4.33;;;8.10;99.90;;;;;;5054836;28;20206;-79
2022/11/26 04:11:39;;;;;;;13.10;3.73;;;8.10;99.90;;;;;;5054074;28;20625;-79
2022/11/26 04:14:05;;;;;;;17.90;4.53;;;8.10;99.90;;;;;;5054861;28;20202;-80
2022/11/26 04:16:32;;;;;;;13.57;3.77;;;8.10;99.90;;;;;;5054932;28;20225;-78
2022/11/26 04:18:59;;;;;;;13.57;3.87;;;8.10;99.90;;;;;;5074681;28;20198;-78
2022/11/26 04:21:26;;;;;;;16.90;4.90;;;8.10;99.90;;;;;;5074830;28;20203;-78
2022/11/26 04:23:53;;;;;;;18.67;4.90;;;8.10;99.90;;;;;;5074967;28;20201;-78
2022/11/26 04:26:20;;;;;;;14.60;4.53;;;8.10;99.90;;;;;;5073506;28;20281;-78
2022/11/26 04:28:49;;;;;;;16.50;4.13;;;8.10;99.90;;;;;;5054820;28;20237;-79
2022/11/26 04:31:16;;;;;;;12.97;3.83;;;8.20;99.90;;;;;;5054941;28;20285;-78
2022/11/26 04:33:43;;;;;;;16.70;4.30;;;8.20;99.90;;;;;;5054160;28;20484;-79
2022/11/26 04:36:10;;;;;;;20.87;4.47;;;8.20;99.90;;;;;;5054581;28;20648;-78
2022/11/26 04:38:37;;;;;;;12.67;3.63;;;8.10;99.90;;;;;;5055342;28;20213;-81
2022/11/26 04:41:05;;;;;;;13.93;3.83;;;8.10;99.90;;;;;;5054090;28;20202;-78
2022/11/26 04:43:32;;;;;;;18.37;4.33;;;8.10;99.90;;;;;;5054508;28;20292;-78
2022/11/26 04:46:01;;;;;;;16.10;4.33;;;8.10;99.90;;;;;;5054729;28;20229;-79
2022/11/26 04:48:28;;;;;;;15.67;4.33;;;8.10;99.90;;;;;;5054067;28;20610;-78
2022/11/26 04:50:54;;;;;;;14.50;4.27;;;8.10;99.90;;;;;;5054569;28;20205;-79
2022/11/26 04:53:21;;;;;;;24.63;5.80;;;8.10;99.90;;;;;;5071508;28;20209;-79
2022/11/26 04:55:49;;;;;;;14.17;4.10;;;8.10;99.90;;;;;;5074415;28;20284;-80
2022/11/26 04:58:16;;;;;;;19.77;4.83;;;8.10;99.90;;;;;;5057906;28;20248;-79
2022/11/26 05:00:43;;;;;;;17.77;3.63;;;8.10;99.90;;;;;;5053900;28;20201;-78
2022/11/26 05:03:11;;;;;;;20.63;4.13;;;8.10;99.90;;;;;;5054027;28;20208;-79
2022/11/26 05:05:38;;;;;;;15.57;4.20;;;8.10;99.90;;;;;;5054346;28;20201;-80
2022/11/26 05:08:05;;;;;;;13.40;3.83;;;8.00;99.90;;;;;;5053989;28;20202;-80
2022/11/26 05:10:33;;;;;;;16.17;3.80;;;8.00;99.90;;;;;;5054438;28;20213;-80
2022/11/26 05:13:00;;;;;;;19.60;4.27;;;8.00;99.90;;;;;;5053364;28;20198;-78
2022/11/26 05:15:27;;;;;;;27.53;4.80;;;7.90;99.90;;;;;;5053443;28;20612;-80
2022/11/26 05:17:53;;;;;;;14.33;3.53;;;7.90;99.90;;;;;;5054161;28;20328;-79
2022/11/26 05:20:22;;;;;;;19.30;4.43;;;7.80;99.90;;;;;;5054041;28;20289;-80
2022/11/26 05:22:49;;;;;;;21.77;5.07;;;7.80;99.90;;;;;;5053685;28;20202;-79
2022/11/26 05:25:16;;;;;;;12.00;4.30;;;7.80;99.90;;;;;;5054225;28;20202;-80
2022/11/26 05:27:42;;;;;;;16.67;4.00;;;7.80;99.90;;;;;;5054394;28;20714;-78
2022/11/26 05:30:10;;;;;;;13.03;5.10;;;7.80;99.90;;;;;;5053148;28;20190;-79
2022/11/26 05:32:37;;;;;;;16.13;4.00;;;7.80;99.90;;;;;;5053854;28;20198;-79
2022/11/26 05:35:05;;;;;;;16.13;3.73;;;7.70;99.90;;;;;;5054313;28;20507;-78
2022/11/26 05:37:33;;;;;;;16.03;3.87;;;7.70;99.90;;;;;;5052872;28;20225;-79
2022/11/26 05:40:00;;;;;;;24.10;4.50;;;7.70;99.90;;;;;;5053729;28;20202;-80
2022/11/26 05:42:27;;;;;;;11.77;3.90;;;7.70;99.90;;;;;;5052214;28;20209;-78
2022/11/26 05:44:54;;;;;;;16.90;4.37;;;7.70;99.90;;;;;;5053562;28;20208;-79
2022/11/26 05:47:21;;;;;;;18.00;5.03;;;7.70;99.90;;;;;;5053260;28;20296;-79
2022/11/26 05:49:47;;;;;;;11.13;3.63;;;7.70;99.90;;;;;;5053019;28;20537;-79
2022/11/26 05:52:14;;;;;;;20.10;4.23;;;7.70;99.90;;;;;;5053270;28;20209;-78
2022/11/26 05:54:43;;;;;;;12.17;4.40;;;7.60;99.90;;;;;;5053098;28;20220;-78
2022/11/26 05:57:10;;;;;;;22.77;4.83;;;7.60;99.90;;;;;;5052550;28;20722;-79
2022/11/26 05:59:37;;;;;;;19.23;4.37;;;7.70;99.90;;;;;;5053321;28;20201;-79
2022/11/26 06:02:04;;;;;;;11.00;3.80;;;7.70;99.90;;;;;;5053350;28;20214;-79
2022/11/26 06:04:31;;;;;;;19.20;5.33;;;7.60;99.90;;;;;;5052689;28;20202;-79
2022/11/26 06:06:57;;;;;;;15.93;4.37;;;7.60;99.90;;;;;;5052680;28;20233;-80
2022/11/26 06:09:24;;;;;;;17.87;5.37;;;7.60;99.90;;;;;;5060206;28;20229;-78
2022/11/26 06:11:53;;;;;;;17.80;5.13;;;7.60;99.90;;;;;;5072699;28;20205;-80
2022/11/26 06:14:20;;;;;;;16.73;4.23;;;7.70;99.90;;;;;;5053166;28;20702;-79
2022/11/26 06:16:47;;;;;;;22.20;5.60;;;7.70;99.90;;;;;;5053178;28;20229;-79
2022/11/26 06:19:14;;;;;;;16.30;4.97;;;7.70;99.90;;;;;;5061371;28;20215;-78
2022/11/26 06:21:41;;;;;;;19.43;5.10;;;7.70;99.90;;;;;;5072422;28;20292;-79
2022/11/26 06:24:08;;;;;;;16.73;5.97;;;7.70;99.90;;;;;;5072712;28;20244;-79
2022/11/26 06:26:35;;;;;;;20.57;5.03;;;7.70;99.90;;;;;;5072745;28;20227;-80
2022/11/26 06:29:03;;;;;;;17.40;5.20;;;7.70;99.90;;;;;;5072603;28;20233;-79
2022/11/26 06:31:31;;;;;;;18.57;5.40;;;7.70;99.90;;;;;;5068348;28;20284;-79
2022/11/26 06:33:58;;;;;;;19.70;5.23;;;7.60;99.90;;;;;;5052457;28;20228;-79
2022/11/26 06:36:25;;;;;;;17.63;5.57;;;7.60;99.90;;;;;;5052511;28;20301;-78
2022/11/26 06:38:52;;;;;;;19.13;5.30;;;7.60;99.90;;;;;;5052648;28;20208;-80
2022/11/26 06:41:19;;;;;;;15.23;4.83;;;7.60;99.90;;;;;;5057622;28;20205;-78
2022/11/26 06:43:46;;;;;;;10.07;4.63;;;7.60;99.90;;;;;;5072986;28;20307;-79
2022/11/26 06:46:14;;;;;;;15.13;5.90;;;7.60;99.90;;;;;;5062586;28;20248;-79
2022/11/26 06:48:41;;;;;;;20.57;5.77;;;7.70;99.90;;;;;;5052866;28;20202;-79
2022/11/26 06:51:10;;;;;;;20.97;5.90;;;7.70;99.90;;;;;;5052069;28;20194;-78
2022/11/26 06:53:37;;;;;;;16.10;6.30;;;7.70;99.90;;;;;;5052374;28;20208;-80
2022/11/26 06:56:06;;;;;;;22.87;5.93;;;7.70;99.90;;;;;;5052948;28;20205;-79
2022/11/26 06:58:32;;;;;;;19.23;6.50;;;7.70;99.90;;;;;;5062570;28;20212;-80
2022/11/26 07:01:00;;;;;;;19.07;6.80;;;7.70;99.90;;;;;;5072528;28;20193;-79
2022/11/26 07:03:28;;;;;;;24.53;7.77;;;7.70;99.90;;;;;;5072392;28;20590;-78
2022/11/26 07:05:54;;;;;;;20.90;7.00;;;7.70;99.90;;;;;;5069069;28;20214;-79
2022/11/26 07:08:21;;;;;;;18.17;5.60;;;7.70;99.90;;;;;;5062878;28;20189;-78
2022/11/26 07:10:48;;;;;;;23.50;6.60;;;7.70;99.90;;;;;;5071873;28;20262;-79
2022/11/26 07:13:15;;;;;;;20.33;6.97;;;7.70;99.90;;;;;;5065834;28;20206;-79
2022/11/26 07:15:42;;;;;;;14.80;5.73;;;7.70;99.90;;;;;;5051935;28;20194;-80
2022/11/26 07:18:09;;;;;;;34.10;7.77;;;7.70;99.90;;;;;;5051131;28;20225;-80
2022/11/26 07:20:38;;;;;;;17.03;6.83;;;7.80;99.90;;;;;;5052110;28;20216;-79
2022/11/26 07:23:04;;;;;;;18.23;6.53;;;7.80;99.90;;;;;;5052441;28;20289;-79
2022/11/26 07:25:31;;;;;;;18.67;6.27;;;7.80;99.90;;;;;;5057527;28;20208;-79
2022/11/26 07:27:58;;;;;;;18.30;6.30;;;7.80;99.90;;;;;;5071169;28;20225;-81
2022/11/26 07:30:25;;;;;;;21.60;7.00;;;7.80;99.90;;;;;;5072356;28;20200;-79
2022/11/26 07:32:52;;;;;;;22.40;6.90;;;7.90;99.90;;;;;;5068502;28;20699;-79
2022/11/26 07:35:19;;;;;;;25.53;8.23;;;7.90;99.90;;;;;;5051945;28;20561;-80
2022/11/26 07:37:47;;;;;;;21.73;7.97;;;7.90;99.90;;;;;;5062268;28;20223;-79
2022/11/26 07:40:14;;;;;;;14.60;6.80;;;7.80;99.90;;;;;;5076433;28;20197;-81
2022/11/26 07:42:41;;;;;;;19.37;7.60;;;7.80;99.90;;;;;;5058481;28;20288;-80
2022/11/26 07:45:08;;;;;;;25.50;7.90;;;7.80;99.90;;;;;;5056383;28;20200;-80
2022/11/26 07:47:35;;;;;;;24.03;7.87;;;7.80;99.90;;;;;;5056186;28;20198;-80
2022/11/26 07:50:03;;;;;;;17.97;8.03;;;7.90;99.90;;;;;;5061185;28;20371;-81
2022/11/26 07:52:29;;;;;;;16.77;7.13;;;7.90;99.90;;;;;;5075919;28;20199;-79
2022/11/26 07:54:58;;;;;;;20.20;8.20;;;7.90;99.90;;;;;;5066430;28;20198;-77
2022/11/26 07:57:24;;;;;;;22.77;7.73;;;7.90;99.90;;;;;;5054495;28;20642;-78
2022/11/26 07:59:51;;;;;;;19.87;8.87;;;7.90;99.90;;;;;;5075208;28;20644;-78
2022/11/26 08:02:18;;;;;;;17.63;7.90;;;7.90;99.90;;;;;;5074887;28;20199;-78
2022/11/26 08:04:45;;;;;;;29.27;9.03;;;7.90;99.90;;;;;;5075078;28;20655;-79
2022/11/26 08:07:12;;;;;;;29.67;8.90;;;7.90;99.90;;;;;;5075693;28;20197;-79
2022/11/26 08:09:39;;;;;;;24.63;8.37;;;7.90;99.90;;;;;;5060946;28;20217;-78
2022/11/26 08:12:07;;;;;;;25.07;8.53;;;7.90;99.90;;;;;;5054647;28;20198;-80
2022/11/26 08:14:34;;;;;;;18.93;8.67;;;7.90;99.90;;;;;;5062498;28;20208;-80
2022/11/26 08:17:01;;;;;;;19.50;8.53;;;8.00;99.90;;;;;;5074519;28;20205;-78
2022/11/26 08:19:28;;;;;;;25.80;10.00;;;8.00;99.90;;;;;;5073340;28;20236;-78
2022/11/26 08:21:55;;;;;;;20.60;8.27;;;8.00;99.90;;;;;;5073497;28;20199;-79
2022/11/26 08:24:22;;;;;;;23.67;9.37;;;8.00;99.90;;;;;;5069504;28;20235;-80
2022/11/26 08:26:49;;;;;;;29.43;9.37;;;8.10;99.90;;;;;;5073547;28;20504;-78
2022/11/26 08:29:18;;;;;;;21.27;8.63;;;8.10;99.90;;;;;;5073086;28;20241;-79
2022/11/26 08:31:48;;;;;;;23.67;8.97;;;8.10;99.90;;;;;;5072723;28;20592;-78
2022/11/26 08:34:16;;;;;;;23.73;8.83;;;8.20;99.90;;;;;;5073917;28;20656;-77
2022/11/26 08:36:44;;;;;;;26.03;9.37;;;8.20;99.90;;;;;;5063740;28;20212;-79
2022/11/26 08:39:13;;;;;;;24.67;9.43;;;8.30;99.90;;;;;;5053846;28;20209;-78
2022/11/26 08:41:40;;;;;;;23.93;8.90;;;8.30;99.90;;;;;;5054522;28;20193;-80
2022/11/26 08:44:07;;;;;;;22.97;8.60;;;8.40;99.90;;;;;;5054863;28;20205;-79
2022/11/26 08:46:35;;;;;;;29.40;9.40;;;8.40;99.90;;;;;;5053203;28;20237;-78
2022/11/26 08:49:03;;;;;;;25.83;9.17;;;8.50;99.90;;;;;;5054299;28;20229;-78
2022/11/26 08:51:30;;;;;;;21.53;8.40;;;8.50;99.90;;;;;;5054780;28;20293;-79
2022/11/26 08:53:57;;;;;;;22.07;7.50;;;8.60;99.90;;;;;;5054020;28;20198;-78
2022/11/26 08:56:24;;;;;;;23.27;7.67;;;8.60;99.90;;;;;;5054124;28;20201;-78
2022/11/26 08:58:51;;;;;;;22.27;8.60;;;8.70;99.90;;;;;;5054210;28;20229;-77
2022/11/26 09:01:20;;;;;;;30.63;10.67;;;8.80;99.90;;;;;;5053389;28;20201;-79
2022/11/26 09:03:50;;;;;;;27.27;10.07;;;8.80;99.90;;;;;;5054449;28;20198;-78
2022/11/26 09:06:18;;;;;;;31.17;11.40;;;8.80;99.90;;;;;;5053822;28;20202;-78
2022/11/26 09:09:11;;;;;;;26.83;9.73;;;8.80;99.90;;;;;;5053876;28;20491;-79
2022/11/26 09:11:33;;;;;;;30.63;10.57;;;8.80;99.90;;;;;;5053672;28;20259;-79
2022/11/26 09:14:01;;;;;;;20.17;8.73;;;8.80;99.90;;;;;;5053515;28;20202;-79
2022/11/26 09:16:28;;;;;;;30.33;11.30;;;8.80;99.90;;;;;;5053568;28;20241;-79
2022/11/26 09:18:59;;;;;;;24.77;10.67;;;8.90;99.90;;;;;;5054028;28;20232;-78
2022/11/26 09:21:26;;;;;;;19.83;9.37;;;8.90;99.90;;;;;;5053312;28;20611;-79
2022/11/26 09:23:53;;;;;;;26.60;9.90;;;9.00;99.90;;;;;;5053605;28;20214;-79
2022/11/26 09:26:20;;;;;;;29.60;10.90;;;9.00;99.90;;;;;;5054042;28;20206;-79
2022/11/26 09:28:48;;;;;;;22.63;9.83;;;9.00;99.90;;;;;;5055299;28;20234;-79
2022/11/26 09:31:15;;;;;;;24.57;9.70;;;9.00;99.90;;;;;;5066372;28;20491;-78
2022/11/26 09:33:42;;;;;;;34.43;11.27;;;9.00;99.90;;;;;;5069351;28;20201;-79
2022/11/26 09:36:12;;;;;;;23.30;9.63;;;9.00;99.90;;;;;;5072942;28;20284;-79
2022/11/26 09:38:40;;;;;;;20.97;9.13;;;9.10;99.90;;;;;;5073680;28;20213;-79
2022/11/26 09:41:14;;;;;;;26.93;10.30;;;9.10;99.90;;;;;;5072264;28;20220;-79
2022/11/26 09:44:07;;;;;;;19.17;9.13;;;9.20;99.90;;;;;;5072800;28;20205;-78
2022/11/26 09:46:44;;;;;;;18.80;8.77;;;9.20;99.90;;;;;;5052839;28;20305;-80
2022/11/26 09:49:14;;;;;;;28.77;9.07;;;9.20;99.90;;;;;;5052775;28;20518;-80
2022/11/26 09:51:44;;;;;;;19.87;8.57;;;9.30;99.90;;;;;;5054043;28;20198;-81
2022/11/26 09:54:17;;;;;;;24.37;7.80;;;9.40;99.90;;;;;;5070001;28;20292;-82
2022/11/26 09:56:44;;;;;;;26.73;9.03;;;9.40;99.90;;;;;;5073509;28;20255;-81
2022/11/26 09:59:15;;;;;;;20.47;8.07;;;9.40;99.90;;;;;;5072819;28;20217;-82
2022/11/26 10:01:42;;;;;;;20.57;8.27;;;9.50;99.90;;;;;;5055992;28;20580;-82
2022/11/26 10:04:17;;;;;;;20.20;8.07;;;9.50;99.90;;;;;;5054112;28;20198;-81
2022/11/26 10:06:56;;;;;;;24.60;8.50;;;9.50;99.90;;;;;;5053462;28;20240;-82
2022/11/26 10:09:39;;;;;;;17.73;6.87;;;9.60;99.90;;;;;;5066258;28;20615;-81
2022/11/26 10:12:15;;;;;;;26.77;8.17;;;9.60;99.90;;;;;;5073539;28;20565;-80
2022/11/26 10:14:53;;;;;;;25.00;8.20;;;9.70;99.90;;;;;;5073194;28;20279;-83
2022/11/26 10:17:30;;;;;;;14.87;7.73;;;9.70;99.90;;;;;;5066711;28;20206;-82
2022/11/26 10:20:19;;;;;;;14.37;7.17;;;9.70;99.90;;;;;;5053980;28;20644;-80
2022/11/26 10:22:52;;;;;;;18.47;7.13;;;9.80;99.90;;;;;;5053570;28;20248;-79
2022/11/26 10:25:21;;;;;;;22.70;8.43;;;9.80;99.90;;;;;;5053140;28;20187;-79
2022/11/26 10:27:49;;;;;;;22.93;7.63;;;9.80;99.90;;;;;;5052748;28;20260;-81
2022/11/26 10:30:19;;;;;;;23.80;8.03;;;9.80;99.90;;;;;;5053171;28;20289;-79
2022/11/26 10:32:48;;;;;;;19.67;7.40;;;9.80;99.90;;;;;;5051797;28;20743;-78
2022/11/26 10:35:17;;;;;;;28.83;8.40;;;9.90;99.90;;;;;;5052641;28;20209;-80
2022/11/26 10:37:44;;;;;;;26.73;8.13;;;9.90;99.90;;;;;;5072648;28;20515;-79
2022/11/26 10:40:22;;;;;;;22.37;7.77;;;9.90;99.90;;;;;;5073373;28;20197;-80
2022/11/26 10:42:58;;;;;;;21.83;7.80;;;9.90;99.90;;;;;;5066164;28;20594;-81
2022/11/26 10:45:29;;;;;;;18.50;6.70;;;10.00;99.90;;;;;;5052397;28;20696;-80
2022/11/26 10:48:16;;;;;;;17.77;6.17;;;10.00;99.90;;;;;;5052623;28;20194;-79
2022/11/26 10:50:54;;;;;;;20.77;7.47;;;10.10;99.90;;;;;;5052128;28;20241;-78
2022/11/26 10:53:23;;;;;;;21.00;6.53;;;10.10;99.90;;;;;;5051610;28;20208;-77
2022/11/26 10:55:53;;;;;;;23.10;7.63;;;10.20;99.90;;;;;;5052543;28;20209;-78
2022/11/26 10:58:23;;;;;;;17.93;7.03;;;10.20;99.90;;;;;;5063745;28;20858;-78
2022/11/26 11:01:03;;;;;;;23.67;7.97;;;10.20;99.90;;;;;;5071634;28;20203;-78
2022/11/26 11:03:33;;;;;;;20.80;7.77;;;10.30;99.90;;;;;;5072310;28;20204;-78
2022/11/26 11:06:13;;;;;;;22.67;6.90;;;10.30;99.90;;;;;;5058549;28;20749;-78
2022/11/26 11:08:40;;;;;;;13.97;6.00;;;10.30;99.90;;;;;;5052251;28;20280;-78
2022/11/26 11:11:19;;;;;;;20.73;6.57;;;10.30;99.90;;;;;;5052854;28;20254;-78
2022/11/26 11:13:47;;;;;;;18.67;6.77;;;10.40;99.90;;;;;;5055984;28;20201;-77
2022/11/26 11:16:15;;;;;;;17.20;6.03;;;10.40;99.90;;;;;;5055413;28;20213;-78
2022/11/26 11:18:51;;;;;;;13.77;5.40;;;10.50;99.90;;;;;;5055821;28;20232;-78
2022/11/26 11:21:20;;;;;;;16.70;7.03;;;10.50;99.90;;;;;;5055297;28;20728;-79
2022/11/26 11:23:47;;;;;;;15.27;6.33;;;10.60;99.90;;;;;;5055576;28;20205;-78
2022/11/26 11:26:20;;;;;;;23.77;7.57;;;10.60;99.90;;;;;;5055990;28;20621;-78
2022/11/26 11:28:50;;;;;;;19.93;6.87;;;10.60;99.90;;;;;;5055008;28;20638;-79
2022/11/26 11:31:19;;;;;;;24.73;7.40;;;10.60;99.90;;;;;;5055803;28;20331;-78
2022/11/26 11:33:47;;;;;;;22.27;8.00;;;10.60;99.90;;;;;;5055281;28;20216;-78
2022/11/26 11:36:31;;;;;;;19.67;6.37;;;10.70;99.90;;;;;;5055228;28;20489;-78
2022/11/26 11:39:00;;;;;;;14.07;6.47;;;10.70;99.90;;;;;;5055554;28;20901;-79
2022/11/26 11:41:32;;;;;;;14.07;6.10;;;10.70;99.90;;;;;;5054946;28;20194;-78
2022/11/26 11:44:03;;;;;;;15.47;6.93;;;10.80;99.90;;;;;;5055768;28;20248;-79
2022/11/26 11:46:54;;;;;;;14.60;6.57;;;10.80;99.90;;;;;;5055271;28;20229;-78
2022/11/26 11:49:32;;;;;;;20.23;6.47;;;10.90;99.90;;;;;;5055384;28;20662;-79
2022/11/26 11:52:12;;;;;;;15.93;6.87;;;10.90;99.90;;;;;;5054794;28;20198;-79
2022/11/26 11:54:55;;;;;;;16.40;6.93;;;11.00;99.90;;;;;;5055321;28;20786;-78
2022/11/26 11:57:39;;;;;;;15.10;6.57;;;11.00;99.90;;;;;;5054882;28;20198;-78
2022/11/26 12:00:12;;;;;;;18.50;6.37;;;11.10;99.90;;;;;;5055662;28;20622;-79
2022/11/26 12:03:00;;;;;;;15.30;7.20;;;11.10;99.90;;;;;;5054853;28;20251;-78
2022/11/26 12:05:56;;;;;;;13.57;6.73;;;11.10;99.90;;;;;;5055304;28;20209;-78
2022/11/26 12:08:36;;;;;;;16.97;7.17;;;11.10;99.90;;;;;;5050415;28;20575;-77
2022/11/26 12:11:19;;;;;;;13.47;7.40;;;11.20;99.90;;;;;;5054537;28;20201;-80
2022/11/26 12:13:50;;;;;;;16.10;7.13;;;11.20;99.90;;;;;;5055160;28;20280;-78
2022/11/26 12:16:20;;;;;;;15.23;6.80;;;11.20;99.90;;;;;;5054991;28;20289;-79
2022/11/26 12:18:52;;;;;;;14.47;6.63;;;11.20;99.90;;;;;;5055554;28;20245;-79
2022/11/26 12:21:27;;;;;;;18.77;6.87;;;11.20;99.90;;;;;;5054857;28;20186;-79
2022/11/26 12:23:58;;;;;;;20.67;8.77;;;11.20;99.90;;;;;;5054150;28;20251;-79
2022/11/26 12:26:29;;;;;;;20.40;7.87;;;11.20;99.90;;;;;;5054858;28;20209;-79
2022/11/26 12:29:04;;;;;;;18.93;7.40;;;11.20;99.90;;;;;;5054533;28;20316;-79
2022/11/26 12:31:36;;;;;;;17.67;7.83;;;11.30;99.90;;;;;;5054301;28;20203;-80
2022/11/26 12:34:11;;;;;;;13.03;6.30;;;11.30;99.90;;;;;;5054569;28;20218;-79
2022/11/26 12:36:43;;;;;;;20.70;9.00;;;11.30;99.90;;;;;;5054988;28;20194;-79
2022/11/26 12:39:17;;;;;;;19.50;8.13;;;11.30;99.90;;;;;;5053978;28;20525;-78
2022/11/26 12:41:50;;;;;;;19.13;7.67;;;11.40;99.90;;;;;;5054126;28;20201;-78
2022/11/26 12:44:28;;;;;;;21.40;7.70;;;11.40;99.90;;;;;;5054819;28;20194;-78
2022/11/26 12:47:04;;;;;;;18.53;7.90;;;11.50;99.90;;;;;;5054499;28;20263;-78
2022/11/26 12:49:47;;;;;;;12.93;7.00;;;11.50;99.90;;;;;;5054522;28;20211;-78
2022/11/26 12:52:28;;;;;;;26.00;7.97;;;11.60;99.90;;;;;;5053709;28;20513;-78
2022/11/26 12:55:02;;;;;;;16.43;7.80;;;11.60;99.90;;;;;;5054292;28;20186;-78
2022/11/26 12:57:37;;;;;;;15.20;8.00;;;11.60;99.90;;;;;;5054087;28;20209;-78
2022/11/26 13:00:11;;;;;;;14.20;7.27;;;11.60;99.90;;;;;;5073166;28;20229;-78